Sand Point, AK

5:40 PM AKST on March 04, 2015 (GMT -0900)
Sand Point | Change Station
CLOSE
Current Station
Airport
Location: Sand Point,
Elevation: 23 ft
Nearby Weather Stations

Elev 23 ft 55.31 °N, 160.52 °W | Updated 24 minutes ago

Overcast
Overcast
36 °F
Feels Like 33 °F
N
4
Wind Variable Wind from West

Today
High -- | Low -- °F
--% Chance of Precip.
Yesterday
High -- | Low -- °F
Precip. -- in
8:24 AM 7:23 PM
Full, 100% visible
Pressure 29.87 in
Visibility 7.0 miles
Clouds Few 900 ft
Mostly Cloudy 2400 ft
Overcast 3100 ft
Windchill 33 °F
Dew Point 34 °F
Humidity 93%
Rainfall 0.00 in
Snow Depth Not available.
UV 0 out of 12
Pollen Not available.
Air Quality Not available.
Flu Activity Not available.
METAR PASD 050216Z 28003KT 7SM FEW009 BKN024 OVC031 02/01 A2987 RMK AO1 WEA: -RA (AE)

More Conditions Fewer Conditions

Pressure 29.87 in
Visibility 7.0 miles
Clouds Few 900 ft
Mostly Cloudy 2400 ft
Overcast 3100 ft
Windchill 33 °F
Dew Point 34 °F
Humidity 93%
Rainfall 0.00 in
Snow Depth Not available.
UV 0 out of 12
Pollen Not available.
Air Quality Not available.
Flu Activity Not available.
METAR PASD 050216Z 28003KT 7SM FEW009 BKN024 OVC031 02/01 A2987 RMK AO1 WEA: -RA (AE)

More Conditions Fewer Conditions

10-Day Weather Forecast

Almanac

Astronomy

Mar. 04, 2015 Rise Set
Actual Time
Civil Twilight
Nautical Twilight
Astronomical Twilight
Moon
Length of Visible Light
Length of Day
Tomorrow will be .
, % of the Moon is Illuminated

Today's Extremes

State Highs State Lows

Community

WunderPhotos

Upload Photos

1,802,634 photos uploaded!

WunderBlogs® & News

Nearby

Air Quality

  Air Quality AQ Index Pollutant
Not available.

Snow Depth

Station Depth Elevation

Earthquake Activity

City Distance Mag. Time & Date
Minimum magnitude displayed is 2.5.

Coastal Water Temperatures

Place Temperature

Nearby Weather Stations